sensor_id;sensor_type;location;lat;lon;timestamp;pressure;altitude;pressure_sealevel;temperature;humidity
37778;BME280;23615;51.506;7.678;2023-03-23T00:00:45;98894.94;;;11.78;92.13
37778;BME280;23615;51.506;7.678;2023-03-23T00:03:10;98891.59;;;11.60;92.76
37778;BME280;23615;51.506;7.678;2023-03-23T00:05:35;98883.13;;;11.74;92.62
37778;BME280;23615;51.506;7.678;2023-03-23T00:08:02;98882.50;;;11.61;93.32
37778;BME280;23615;51.506;7.678;2023-03-23T00:10:28;98884.41;;;11.66;93.51
37778;BME280;23615;51.506;7.678;2023-03-23T00:12:58;98882.06;;;11.75;93.59
37778;BME280;23615;51.506;7.678;2023-03-23T00:15:27;98879.59;;;11.63;94.11
37778;BME280;23615;51.506;7.678;2023-03-23T00:17:55;98875.16;;;11.79;93.55
37778;BME280;23615;51.506;7.678;2023-03-23T00:20:28;98878.00;;;11.67;94.32
37778;BME280;23615;51.506;7.678;2023-03-23T00:23:06;98865.38;;;11.57;94.32
37778;BME280;23615;51.506;7.678;2023-03-23T00:25:32;98877.59;;;11.48;94.42
37778;BME280;23615;51.506;7.678;2023-03-23T00:27:58;98862.50;;;11.64;94.79
37778;BME280;23615;51.506;7.678;2023-03-23T00:30:23;98863.25;;;11.59;95.59
37778;BME280;23615;51.506;7.678;2023-03-23T00:32:48;98855.44;;;11.48;95.49
37778;BME280;23615;51.506;7.678;2023-03-23T00:35:16;98851.13;;;11.42;95.58
37778;BME280;23615;51.506;7.678;2023-03-23T00:37:42;98855.97;;;11.45;96.18
37778;BME280;23615;51.506;7.678;2023-03-23T00:40:09;98851.44;;;11.50;95.64
37778;BME280;23615;51.506;7.678;2023-03-23T00:42:35;98849.81;;;11.44;96.00
37778;BME280;23615;51.506;7.678;2023-03-23T00:45:04;98853.56;;;11.43;96.24
37778;BME280;23615;51.506;7.678;2023-03-23T00:47:38;98851.44;;;11.50;95.60
37778;BME280;23615;51.506;7.678;2023-03-23T00:50:04;98852.44;;;11.39;96.02
37778;BME280;23615;51.506;7.678;2023-03-23T00:52:30;98852.19;;;11.41;96.01
37778;BME280;23615;51.506;7.678;2023-03-23T00:54:56;98857.28;;;11.42;96.46
37778;BME280;23615;51.506;7.678;2023-03-23T00:57:21;98846.59;;;11.42;96.07
37778;BME280;23615;51.506;7.678;2023-03-23T00:59:49;98834.59;;;11.45;95.91
37778;BME280;23615;51.506;7.678;2023-03-23T01:02:15;98850.41;;;11.56;96.00
37778;BME280;23615;51.506;7.678;2023-03-23T01:04:41;98848.03;;;11.55;95.17
37778;BME280;23615;51.506;7.678;2023-03-23T01:07:10;98843.94;;;11.42;95.86
37778;BME280;23615;51.506;7.678;2023-03-23T01:09:38;98840.69;;;11.35;96.41
37778;BME280;23615;51.506;7.678;2023-03-23T01:12:05;98852.50;;;11.49;95.67
37778;BME280;23615;51.506;7.678;2023-03-23T01:14:31;98842.63;;;11.50;95.08
37778;BME280;23615;51.506;7.678;2023-03-23T01:16:56;98842.41;;;11.56;95.43
37778;BME280;23615;51.506;7.678;2023-03-23T01:19:22;98830.59;;;11.47;94.99
37778;BME280;23615;51.506;7.678;2023-03-23T01:21:47;98824.25;;;11.58;94.34
37778;BME280;23615;51.506;7.678;2023-03-23T01:24:13;98841.34;;;11.57;94.22
37778;BME280;23615;51.506;7.678;2023-03-23T01:26:38;98832.00;;;11.60;94.21
37778;BME280;23615;51.506;7.678;2023-03-23T01:29:04;98838.16;;;11.60;94.01
37778;BME280;23615;51.506;7.678;2023-03-23T01:31:29;98831.44;;;11.53;94.34
37778;BME280;23615;51.506;7.678;2023-03-23T01:33:54;98834.44;;;11.61;93.90
37778;BME280;23615;51.506;7.678;2023-03-23T01:36:23;98847.53;;;11.63;93.53
37778;BME280;23615;51.506;7.678;2023-03-23T01:38:49;98845.06;;;11.56;94.46
37778;BME280;23615;51.506;7.678;2023-03-23T01:41:16;98858.56;;;11.77;93.25
37778;BME280;23615;51.506;7.678;2023-03-23T01:44:01;98863.50;;;11.58;95.26
37778;BME280;23615;51.506;7.678;2023-03-23T01:46:29;98866.84;;;11.75;94.96
37778;BME280;23615;51.506;7.678;2023-03-23T01:48:56;98856.41;;;11.74;94.67
37778;BME280;23615;51.506;7.678;2023-03-23T01:51:24;98847.88;;;11.77;95.58
37778;BME280;23615;51.506;7.678;2023-03-23T01:53:56;98842.19;;;11.63;96.88
37778;BME280;23615;51.506;7.678;2023-03-23T01:56:25;98842.63;;;11.45;97.86
37778;BME280;23615;51.506;7.678;2023-03-23T01:58:52;98841.81;;;11.44;98.24
37778;BME280;23615;51.506;7.678;2023-03-23T02:01:19;98830.03;;;11.40;99.29
37778;BME280;23615;51.506;7.678;2023-03-23T02:03:47;98839.03;;;11.29;99.48
37778;BME280;23615;51.506;7.678;2023-03-23T02:06:14;98839.06;;;11.34;99.43
37778;BME280;23615;51.506;7.678;2023-03-23T02:08:40;98834.53;;;11.35;99.59
37778;BME280;23615;51.506;7.678;2023-03-23T02:11:20;98835.34;;;11.35;99.78
37778;BME280;23615;51.506;7.678;2023-03-23T02:13:47;98844.91;;;11.31;99.37
37778;BME280;23615;51.506;7.678;2023-03-23T02:19:03;98855.75;;;11.51;98.47
37778;BME280;23615;51.506;7.678;2023-03-23T02:21:46;98831.38;;;11.38;99.75
37778;BME280;23615;51.506;7.678;2023-03-23T02:27:14;98794.16;;;11.26;100.00
37778;BME280;23615;51.506;7.678;2023-03-23T02:29:48;98773.31;;;11.23;100.00
37778;BME280;23615;51.506;7.678;2023-03-23T02:33:05;98759.34;;;11.11;100.00
37778;BME280;23615;51.506;7.678;2023-03-23T02:35:35;98770.84;;;11.11;100.00
37778;BME280;23615;51.506;7.678;2023-03-23T02:38:08;98784.16;;;11.06;100.00
37778;BME280;23615;51.506;7.678;2023-03-23T02:40:43;98776.16;;;11.06;100.00
37778;BME280;23615;51.506;7.678;2023-03-23T02:43:14;98767.72;;;11.19;100.00
37778;BME280;23615;51.506;7.678;2023-03-23T02:45:41;98755.09;;;11.10;100.00
37778;BME280;23615;51.506;7.678;2023-03-23T02:48:08;98760.38;;;11.05;100.00
37778;BME280;23615;51.506;7.678;2023-03-23T02:50:36;98760.66;;;11.03;100.00
37778;BME280;23615;51.506;7.678;2023-03-23T02:53:07;98766.91;;;11.19;100.00
37778;BME280;23615;51.506;7.678;2023-03-23T02:55:37;98769.59;;;11.29;100.00
37778;BME280;23615;51.506;7.678;2023-03-23T02:58:11;98763.84;;;11.00;100.00
37778;BME280;23615;51.506;7.678;2023-03-23T03:00:37;98764.91;;;10.99;100.00
37778;BME280;23615;51.506;7.678;2023-03-23T03:03:03;98757.97;;;11.03;100.00
37778;BME280;23615;51.506;7.678;2023-03-23T03:05:40;98735.47;;;10.89;100.00
37778;BME280;23615;51.506;7.678;2023-03-23T03:08:44;98747.38;;;11.13;100.00
37778;BME280;23615;51.506;7.678;2023-03-23T03:11:16;98738.53;;;11.08;100.00
37778;BME280;23615;51.506;7.678;2023-03-23T03:21:52;98724.00;;;10.88;100.00
37778;BME280;23615;51.506;7.678;2023-03-23T03:24:20;98726.19;;;10.97;100.00
37778;BME280;23615;51.506;7.678;2023-03-23T03:26:47;98732.91;;;11.04;100.00
37778;BME280;23615;51.506;7.678;2023-03-23T03:29:18;98721.97;;;11.06;100.00
37778;BME280;23615;51.506;7.678;2023-03-23T03:31:47;98731.00;;;11.00;100.00
37778;BME280;23615;51.506;7.678;2023-03-23T03:34:15;98727.91;;;11.18;100.00
37778;BME280;23615;51.506;7.678;2023-03-23T03:36:43;98735.31;;;11.06;100.00
37778;BME280;23615;51.506;7.678;2023-03-23T03:39:11;98733.94;;;11.03;100.00
37778;BME280;23615;51.506;7.678;2023-03-23T03:41:38;98733.44;;;11.06;100.00
37778;BME280;23615;51.506;7.678;2023-03-23T03:44:04;98741.94;;;10.98;100.00
37778;BME280;23615;51.506;7.678;2023-03-23T03:46:30;98729.97;;;11.06;100.00
37778;BME280;23615;51.506;7.678;2023-03-23T03:48:57;98735.25;;;10.96;100.00
37778;BME280;23615;51.506;7.678;2023-03-23T03:51:23;98727.00;;;11.02;100.00
37778;BME280;23615;51.506;7.678;2023-03-23T03:53:49;98747.84;;;11.00;100.00
37778;BME280;23615;51.506;7.678;2023-03-23T03:56:15;98728.88;;;11.02;99.38
37778;BME280;23615;51.506;7.678;2023-03-23T03:58:41;98745.53;;;11.19;98.54
37778;BME280;23615;51.506;7.678;2023-03-23T04:01:10;98747.22;;;11.35;96.31
37778;BME280;23615;51.506;7.678;2023-03-23T04:03:36;98743.75;;;11.35;95.82
37778;BME280;23615;51.506;7.678;2023-03-23T04:06:02;98744.44;;;11.20;96.11
37778;BME280;23615;51.506;7.678;2023-03-23T04:08:28;98744.19;;;11.16;96.21
37778;BME280;23615;51.506;7.678;2023-03-23T04:10:53;98744.78;;;11.29;96.14
37778;BME280;23615;51.506;7.678;2023-03-23T04:13:19;98742.59;;;11.20;96.41
37778;BME280;23615;51.506;7.678;2023-03-23T04:15:45;98740.66;;;11.06;96.95
37778;BME280;23615;51.506;7.678;2023-03-23T04:18:11;98747.91;;;11.10;97.06
37778;BME280;23615;51.506;7.678;2023-03-23T04:20:37;98746.84;;;11.16;96.88
37778;BME280;23615;51.506;7.678;2023-03-23T04:23:03;98765.34;;;11.28;96.58
37778;BME280;23615;51.506;7.678;2023-03-23T04:25:28;98743.69;;;11.19;96.10
37778;BME280;23615;51.506;7.678;2023-03-23T04:27:58;98748.47;;;11.17;96.58
37778;BME280;23615;51.506;7.678;2023-03-23T04:30:25;98753.28;;;11.20;96.46
37778;BME280;23615;51.506;7.678;2023-03-23T04:32:52;98743.19;;;11.28;96.38
37778;BME280;23615;51.506;7.678;2023-03-23T04:35:21;98752.75;;;11.23;96.12
37778;BME280;23615;51.506;7.678;2023-03-23T04:37:47;98747.38;;;11.13;96.56
37778;BME280;23615;51.506;7.678;2023-03-23T04:40:13;98746.91;;;11.27;96.28
37778;BME280;23615;51.506;7.678;2023-03-23T04:42:41;98747.72;;;11.32;95.88
37778;BME280;23615;51.506;7.678;2023-03-23T04:45:12;98741.56;;;11.27;95.71
37778;BME280;23615;51.506;7.678;2023-03-23T04:47:40;98740.50;;;11.28;96.03
37778;BME280;23615;51.506;7.678;2023-03-23T04:50:10;98738.72;;;11.43;95.27
37778;BME280;23615;51.506;7.678;2023-03-23T04:52:38;98739.41;;;11.18;95.58
37778;BME280;23615;51.506;7.678;2023-03-23T04:55:06;98743.88;;;11.08;96.69
37778;BME280;23615;51.506;7.678;2023-03-23T04:57:32;98735.06;;;11.12;95.99
37778;BME280;23615;51.506;7.678;2023-03-23T04:59:58;98729.53;;;11.19;96.32
37778;BME280;23615;51.506;7.678;2023-03-23T05:02:23;98730.84;;;11.21;95.41
37778;BME280;23615;51.506;7.678;2023-03-23T05:04:50;98734.81;;;11.09;96.30
37778;BME280;23615;51.506;7.678;2023-03-23T05:07:16;98742.31;;;11.17;95.75
37778;BME280;23615;51.506;7.678;2023-03-23T05:09:41;98741.78;;;11.20;95.71
37778;BME280;23615;51.506;7.678;2023-03-23T05:12:08;98757.56;;;11.21;95.91
37778;BME280;23615;51.506;7.678;2023-03-23T05:14:35;98751.72;;;11.30;95.69
37778;BME280;23615;51.506;7.678;2023-03-23T05:17:00;98753.56;;;11.24;96.30
37778;BME280;23615;51.506;7.678;2023-03-23T05:19:26;98759.94;;;11.18;96.10
37778;BME280;23615;51.506;7.678;2023-03-23T05:21:53;98740.78;;;11.31;95.57
37778;BME280;23615;51.506;7.678;2023-03-23T05:24:19;98764.63;;;11.43;95.28
37778;BME280;23615;51.506;7.678;2023-03-23T05:26:44;98756.25;;;11.24;95.55
37778;BME280;23615;51.506;7.678;2023-03-23T05:29:13;98765.66;;;11.37;94.36
37778;BME280;23615;51.506;7.678;2023-03-23T05:31:38;98772.63;;;11.48;94.29
37778;BME280;23615;51.506;7.678;2023-03-23T05:34:05;98764.06;;;11.41;94.69
37778;BME280;23615;51.506;7.678;2023-03-23T05:36:30;98763.16;;;11.20;95.33
37778;BME280;23615;51.506;7.678;2023-03-23T05:38:55;98766.44;;;11.32;95.06
37778;BME280;23615;51.506;7.678;2023-03-23T05:41:21;98766.47;;;11.42;94.73
37778;BME280;23615;51.506;7.678;2023-03-23T05:43:48;98770.69;;;11.28;95.58
37778;BME280;23615;51.506;7.678;2023-03-23T05:46:13;98765.59;;;11.27;96.02
37778;BME280;23615;51.506;7.678;2023-03-23T05:48:39;98775.91;;;11.13;96.39
37778;BME280;23615;51.506;7.678;2023-03-23T05:51:05;98772.25;;;11.24;96.02
37778;BME280;23615;51.506;7.678;2023-03-23T05:53:30;98778.47;;;11.40;95.36
37778;BME280;23615;51.506;7.678;2023-03-23T05:56:02;98786.22;;;11.41;94.69
37778;BME280;23615;51.506;7.678;2023-03-23T05:58:28;98793.06;;;11.22;95.04
37778;BME280;23615;51.506;7.678;2023-03-23T06:00:54;98793.63;;;11.24;95.59
37778;BME280;23615;51.506;7.678;2023-03-23T06:03:20;98793.59;;;11.19;95.68
37778;BME280;23615;51.506;7.678;2023-03-23T06:05:46;98785.59;;;11.19;95.27
37778;BME280;23615;51.506;7.678;2023-03-23T06:08:11;98788.59;;;11.33;95.06
37778;BME280;23615;51.506;7.678;2023-03-23T06:10:37;98785.59;;;11.24;95.46
37778;BME280;23615;51.506;7.678;2023-03-23T06:13:03;98796.91;;;11.41;94.80
37778;BME280;23615;51.506;7.678;2023-03-23T06:15:29;98792.88;;;11.39;94.54
37778;BME280;23615;51.506;7.678;2023-03-23T06:18:00;98801.00;;;11.54;94.41
37778;BME280;23615;51.506;7.678;2023-03-23T06:20:25;98806.59;;;11.57;94.04
37778;BME280;23615;51.506;7.678;2023-03-23T06:22:51;98798.09;;;11.60;93.63
37778;BME280;23615;51.506;7.678;2023-03-23T06:25:17;98804.69;;;11.48;94.24
37778;BME280;23615;51.506;7.678;2023-03-23T06:27:43;98800.13;;;11.43;94.43
37778;BME280;23615;51.506;7.678;2023-03-23T06:30:09;98801.75;;;11.44;94.48
37778;BME280;23615;51.506;7.678;2023-03-23T06:32:35;98804.72;;;11.53;94.91
37778;BME280;23615;51.506;7.678;2023-03-23T06:35:02;98810.00;;;11.43;94.80
37778;BME280;23615;51.506;7.678;2023-03-23T06:37:28;98814.91;;;11.56;94.68
37778;BME280;23615;51.506;7.678;2023-03-23T06:39:53;98808.22;;;11.58;94.59
37778;BME280;23615;51.506;7.678;2023-03-23T06:42:19;98811.94;;;11.52;94.99
37778;BME280;23615;51.506;7.678;2023-03-23T06:44:44;98815.41;;;11.53;95.22
37778;BME280;23615;51.506;7.678;2023-03-23T06:47:10;98818.16;;;11.68;94.24
37778;BME280;23615;51.506;7.678;2023-03-23T06:49:35;98811.38;;;11.50;94.95
37778;BME280;23615;51.506;7.678;2023-03-23T06:52:01;98807.72;;;11.61;94.40
37778;BME280;23615;51.506;7.678;2023-03-23T06:54:28;98811.44;;;11.55;94.64
37778;BME280;23615;51.506;7.678;2023-03-23T06:56:54;98821.19;;;11.82;93.29
37778;BME280;23615;51.506;7.678;2023-03-23T06:59:19;98813.63;;;11.69;93.96
37778;BME280;23615;51.506;7.678;2023-03-23T07:01:44;98820.56;;;11.65;93.91
37778;BME280;23615;51.506;7.678;2023-03-23T07:04:11;98827.56;;;11.76;93.76
37778;BME280;23615;51.506;7.678;2023-03-23T07:06:37;98814.25;;;11.81;92.65
37778;BME280;23615;51.506;7.678;2023-03-23T07:09:03;98818.84;;;11.95;92.34
37778;BME280;23615;51.506;7.678;2023-03-23T07:11:30;98820.75;;;12.00;91.80
37778;BME280;23615;51.506;7.678;2023-03-23T07:13:55;98828.00;;;12.15;91.44
37778;BME280;23615;51.506;7.678;2023-03-23T07:16:21;98825.59;;;12.18;90.08
37778;BME280;23615;51.506;7.678;2023-03-23T07:18:46;98823.13;;;11.96;91.57
37778;BME280;23615;51.506;7.678;2023-03-23T07:21:12;98826.31;;;11.93;91.83
37778;BME280;23615;51.506;7.678;2023-03-23T07:23:37;98817.78;;;11.91;91.34
37778;BME280;23615;51.506;7.678;2023-03-23T07:26:03;98821.81;;;12.04;90.21
37778;BME280;23615;51.506;7.678;2023-03-23T07:28:28;98818.88;;;12.06;90.53
37778;BME280;23615;51.506;7.678;2023-03-23T07:30:53;98821.81;;;11.99;90.50
37778;BME280;23615;51.506;7.678;2023-03-23T07:33:19;98822.91;;;12.13;89.84
37778;BME280;23615;51.506;7.678;2023-03-23T07:35:44;98828.47;;;11.91;90.85
37778;BME280;23615;51.506;7.678;2023-03-23T07:38:10;98831.72;;;12.14;89.76
37778;BME280;23615;51.506;7.678;2023-03-23T07:40:36;98826.34;;;12.04;90.50
37778;BME280;23615;51.506;7.678;2023-03-23T07:43:03;98831.22;;;12.17;89.38
37778;BME280;23615;51.506;7.678;2023-03-23T07:45:29;98829.84;;;12.09;89.83
37778;BME280;23615;51.506;7.678;2023-03-23T07:47:55;98837.41;;;12.27;88.31
37778;BME280;23615;51.506;7.678;2023-03-23T07:50:21;98850.22;;;12.25;89.36
37778;BME280;23615;51.506;7.678;2023-03-23T07:52:49;98838.25;;;12.38;88.39
37778;BME280;23615;51.506;7.678;2023-03-23T07:55:14;98845.44;;;12.43;87.84
37778;BME280;23615;51.506;7.678;2023-03-23T07:57:44;98846.53;;;12.57;86.93
37778;BME280;23615;51.506;7.678;2023-03-23T08:00:10;98845.47;;;12.53;87.86
37778;BME280;23615;51.506;7.678;2023-03-23T08:02:40;98849.75;;;12.59;86.45
37778;BME280;23615;51.506;7.678;2023-03-23T08:05:07;98845.75;;;12.61;86.80
37778;BME280;23615;51.506;7.678;2023-03-23T08:07:33;98837.47;;;12.63;85.50
37778;BME280;23615;51.506;7.678;2023-03-23T08:09:59;98844.16;;;12.75;85.80
37778;BME280;23615;51.506;7.678;2023-03-23T08:12:24;98849.22;;;12.57;85.96
37778;BME280;23615;51.506;7.678;2023-03-23T08:14:50;98841.72;;;12.59;87.06
37778;BME280;23615;51.506;7.678;2023-03-23T08:17:16;98852.47;;;12.74;85.97
37778;BME280;23615;51.506;7.678;2023-03-23T08:19:41;98839.88;;;12.69;85.66
37778;BME280;23615;51.506;7.678;2023-03-23T08:22:08;98844.94;;;12.66;85.73
37778;BME280;23615;51.506;7.678;2023-03-23T08:24:33;98854.88;;;12.86;84.74
37778;BME280;23615;51.506;7.678;2023-03-23T08:27:00;98854.59;;;12.72;86.71
37778;BME280;23615;51.506;7.678;2023-03-23T08:29:25;98849.53;;;12.81;85.39
37778;BME280;23615;51.506;7.678;2023-03-23T08:31:51;98855.94;;;12.69;86.34
37778;BME280;23615;51.506;7.678;2023-03-23T08:34:16;98851.13;;;12.77;85.65
37778;BME280;23615;51.506;7.678;2023-03-23T08:36:42;98851.41;;;12.80;85.46
37778;BME280;23615;51.506;7.678;2023-03-23T08:39:09;98842.03;;;12.72;85.18
37778;BME280;23615;51.506;7.678;2023-03-23T08:41:35;98851.94;;;12.72;86.07
37778;BME280;23615;51.506;7.678;2023-03-23T08:44:00;98853.00;;;12.81;84.67
37778;BME280;23615;51.506;7.678;2023-03-23T08:46:25;98854.06;;;12.85;85.01
37778;BME280;23615;51.506;7.678;2023-03-23T08:48:51;98857.56;;;12.91;84.84
37778;BME280;23615;51.506;7.678;2023-03-23T08:51:16;98856.22;;;12.98;83.37
37778;BME280;23615;51.506;7.678;2023-03-23T08:53:41;98852.75;;;12.98;84.08
37778;BME280;23615;51.506;7.678;2023-03-23T08:56:10;98860.22;;;13.11;83.69
37778;BME280;23615;51.506;7.678;2023-03-23T08:58:37;98861.88;;;13.27;82.74
37778;BME280;23615;51.506;7.678;2023-03-23T09:01:04;98858.66;;;13.35;82.82
37778;BME280;23615;51.506;7.678;2023-03-23T09:03:32;98863.75;;;13.32;83.14
37778;BME280;23615;51.506;7.678;2023-03-23T09:05:59;98870.44;;;13.24;81.80
37778;BME280;23615;51.506;7.678;2023-03-23T09:08:26;98876.09;;;13.28;82.73
37778;BME280;23615;51.506;7.678;2023-03-23T09:10:53;98881.16;;;13.34;82.26
37778;BME280;23615;51.506;7.678;2023-03-23T09:13:19;98888.94;;;13.26;82.83
37778;BME280;23615;51.506;7.678;2023-03-23T09:15:44;98881.16;;;13.24;83.37
37778;BME280;23615;51.506;7.678;2023-03-23T09:18:09;98892.13;;;13.33;81.95
37778;BME280;23615;51.506;7.678;2023-03-23T09:20:35;98897.50;;;13.33;81.75
37778;BME280;23615;51.506;7.678;2023-03-23T09:23:02;98881.41;;;13.43;80.78
37778;BME280;23615;51.506;7.678;2023-03-23T09:25:27;98880.59;;;13.42;80.92
37778;BME280;23615;51.506;7.678;2023-03-23T09:27:57;98892.13;;;13.33;81.13
37778;BME280;23615;51.506;7.678;2023-03-23T09:30:28;98900.72;;;13.25;82.68
37778;BME280;23615;51.506;7.678;2023-03-23T09:32:54;98904.44;;;13.39;82.29
37778;BME280;23615;51.506;7.678;2023-03-23T09:35:20;98899.38;;;13.42;81.60
37778;BME280;23615;51.506;7.678;2023-03-23T09:37:50;98897.50;;;13.23;82.13
37778;BME280;23615;51.506;7.678;2023-03-23T09:40:19;98889.22;;;13.19;82.28
37778;BME280;23615;51.506;7.678;2023-03-23T09:46:05;98910.88;;;13.48;81.58
37778;BME280;23615;51.506;7.678;2023-03-23T09:51:21;98892.66;;;13.40;81.55
37778;BME280;23615;51.506;7.678;2023-03-23T09:53:51;98895.88;;;13.22;82.50
37778;BME280;23615;51.506;7.678;2023-03-23T09:56:20;98889.19;;;13.29;81.36
37778;BME280;23615;51.506;7.678;2023-03-23T09:58:56;98903.91;;;13.42;80.92
37778;BME280;23615;51.506;7.678;2023-03-23T10:01:30;98914.91;;;13.30;82.75
37778;BME280;23615;51.506;7.678;2023-03-23T10:07:19;98904.97;;;13.51;81.13
37778;BME280;23615;51.506;7.678;2023-03-23T10:09:48;98894.81;;;13.53;81.46
37778;BME280;23615;51.506;7.678;2023-03-23T10:12:36;98891.31;;;13.47;81.75
37778;BME280;23615;51.506;7.678;2023-03-23T10:15:14;98903.09;;;13.62;80.76
37778;BME280;23615;51.506;7.678;2023-03-23T10:17:50;98906.03;;;13.70;80.56
37778;BME280;23615;51.506;7.678;2023-03-23T10:23:04;98894.66;;;14.04;81.18
37778;BME280;23615;51.506;7.678;2023-03-23T10:25:34;98888.81;;;13.86;78.89
37778;BME280;23615;51.506;7.678;2023-03-23T10:28:13;98907.31;;;13.88;79.28
37778;BME280;23615;51.506;7.678;2023-03-23T10:30:51;98904.09;;;13.86;78.71
37778;BME280;23615;51.506;7.678;2023-03-23T10:35:59;98918.09;;;13.68;79.55
37778;BME280;23615;51.506;7.678;2023-03-23T10:38:33;98910.78;;;13.94;79.75
37778;BME280;23615;51.506;7.678;2023-03-23T10:41:04;98918.88;;;13.68;81.33
37778;BME280;23615;51.506;7.678;2023-03-23T10:43:30;98920.25;;;13.61;81.22
37778;BME280;23615;51.506;7.678;2023-03-23T10:46:05;98921.59;;;13.48;79.61
37778;BME280;23615;51.506;7.678;2023-03-23T10:48:37;98928.25;;;13.66;76.74
37778;BME280;23615;51.506;7.678;2023-03-23T10:51:05;98934.97;;;13.48;77.81
37778;BME280;23615;51.506;7.678;2023-03-23T10:53:36;98947.84;;;13.51;77.79
37778;BME280;23615;51.506;7.678;2023-03-23T10:56:03;98963.91;;;13.31;78.06
37778;BME280;23615;51.506;7.678;2023-03-23T10:58:32;98993.97;;;12.03;87.28
37778;BME280;23615;51.506;7.678;2023-03-23T11:01:00;98998.84;;;11.74;91.39
37778;BME280;23615;51.506;7.678;2023-03-23T11:03:41;98996.16;;;11.42;94.06
37778;BME280;23615;51.506;7.678;2023-03-23T11:06:10;99004.84;;;11.28;95.64
37778;BME280;23615;51.506;7.678;2023-03-23T11:08:46;99010.69;;;11.24;96.95
37778;BME280;23615;51.506;7.678;2023-03-23T11:11:38;99003.69;;;11.18;97.11
37778;BME280;23615;51.506;7.678;2023-03-23T11:14:26;99006.91;;;11.20;98.02
37778;BME280;23615;51.506;7.678;2023-03-23T11:16:55;99005.56;;;11.18;98.50
37778;BME280;23615;51.506;7.678;2023-03-23T11:19:26;99016.69;;;11.10;98.65
37778;BME280;23615;51.506;7.678;2023-03-23T11:21:54;99007.00;;;11.04;98.53
37778;BME280;23615;51.506;7.678;2023-03-23T11:24:26;99003.38;;;11.15;98.86
37778;BME280;23615;51.506;7.678;2023-03-23T11:26:52;99007.78;;;11.26;99.28
37778;BME280;23615;51.506;7.678;2023-03-23T11:29:26;99004.03;;;11.27;98.65
37778;BME280;23615;51.506;7.678;2023-03-23T11:32:05;99017.44;;;11.32;99.16
37778;BME280;23615;51.506;7.678;2023-03-23T11:34:47;99012.78;;;11.22;98.63
37778;BME280;23615;51.506;7.678;2023-03-23T11:37:16;99016.59;;;11.27;98.62
37778;BME280;23615;51.506;7.678;2023-03-23T11:39:52;99017.31;;;11.22;98.72
37778;BME280;23615;51.506;7.678;2023-03-23T11:42:24;99019.66;;;11.13;98.71
37778;BME280;23615;51.506;7.678;2023-03-23T11:44:53;99011.69;;;11.18;99.34
37778;BME280;23615;51.506;7.678;2023-03-23T11:47:39;99008.22;;;11.18;99.08
37778;BME280;23615;51.506;7.678;2023-03-23T11:50:26;99005.59;;;11.23;99.23
37778;BME280;23615;51.506;7.678;2023-03-23T11:53:13;99010.66;;;11.19;100.00
37778;BME280;23615;51.506;7.678;2023-03-23T11:58:15;99008.56;;;11.00;100.00
37778;BME280;23615;51.506;7.678;2023-03-23T12:03:38;99007.41;;;11.17;100.00
37778;BME280;23615;51.506;7.678;2023-03-23T12:06:10;99007.66;;;11.16;100.00
37778;BME280;23615;51.506;7.678;2023-03-23T12:09:07;99011.94;;;11.17;100.00
37778;BME280;23615;51.506;7.678;2023-03-23T12:11:43;98999.66;;;11.16;100.00
37778;BME280;23615;51.506;7.678;2023-03-23T12:14:20;99001.38;;;11.27;100.00
37778;BME280;23615;51.506;7.678;2023-03-23T12:17:06;99005.72;;;11.38;100.00
37778;BME280;23615;51.506;7.678;2023-03-23T12:30:21;98993.88;;;11.29;100.00
37778;BME280;23615;51.506;7.678;2023-03-23T12:32:58;99009.47;;;11.37;100.00
37778;BME280;23615;51.506;7.678;2023-03-23T12:35:32;99002.06;;;11.44;100.00
37778;BME280;23615;51.506;7.678;2023-03-23T12:40:47;99015.06;;;11.68;100.00
37778;BME280;23615;51.506;7.678;2023-03-23T12:49:13;99009.50;;;11.42;100.00
37778;BME280;23615;51.506;7.678;2023-03-23T12:51:49;98989.25;;;11.46;100.00
37778;BME280;23615;51.506;7.678;2023-03-23T12:54:28;99000.47;;;11.48;100.00
37778;BME280;23615;51.506;7.678;2023-03-23T12:57:10;98988.78;;;11.54;100.00
37778;BME280;23615;51.506;7.678;2023-03-23T12:59:48;98995.91;;;11.76;100.00
37778;BME280;23615;51.506;7.678;2023-03-23T13:02:22;99002.75;;;11.67;100.00
37778;BME280;23615;51.506;7.678;2023-03-23T13:05:00;99000.00;;;11.56;100.00
37778;BME280;23615;51.506;7.678;2023-03-23T13:07:33;99014.06;;;11.74;100.00
37778;BME280;23615;51.506;7.678;2023-03-23T13:10:19;99017.53;;;11.74;100.00
37778;BME280;23615;51.506;7.678;2023-03-23T13:12:47;99016.41;;;11.65;100.00
37778;BME280;23615;51.506;7.678;2023-03-23T13:15:49;99029.69;;;11.60;100.00
37778;BME280;23615;51.506;7.678;2023-03-23T13:18:31;99031.22;;;11.78;99.54
37778;BME280;23615;51.506;7.678;2023-03-23T13:21:17;99025.75;;;11.68;100.00
37778;BME280;23615;51.506;7.678;2023-03-23T13:23:46;99017.16;;;11.60;100.00
37778;BME280;23615;51.506;7.678;2023-03-23T13:26:18;99028.16;;;11.64;100.00
37778;BME280;23615;51.506;7.678;2023-03-23T13:31:41;99027.31;;;11.32;100.00
37778;BME280;23615;51.506;7.678;2023-03-23T13:34:20;99002.09;;;11.49;100.00
37778;BME280;23615;51.506;7.678;2023-03-23T13:44:54;98975.84;;;11.73;100.00
37778;BME280;23615;51.506;7.678;2023-03-23T13:50:09;98985.94;;;11.34;100.00
37778;BME280;23615;51.506;7.678;2023-03-23T14:00:33;98981.84;;;11.53;100.00
37778;BME280;23615;51.506;7.678;2023-03-23T14:05:51;98967.34;;;11.44;100.00
37778;BME280;23615;51.506;7.678;2023-03-23T14:11:02;98977.88;;;11.61;100.00
37778;BME280;23615;51.506;7.678;2023-03-23T14:13:58;98980.38;;;11.73;100.00
37778;BME280;23615;51.506;7.678;2023-03-23T14:16:35;98985.16;;;11.71;100.00
37778;BME280;23615;51.506;7.678;2023-03-23T14:19:03;98987.66;;;11.77;100.00
37778;BME280;23615;51.506;7.678;2023-03-23T14:21:37;98984.66;;;11.74;100.00
37778;BME280;23615;51.506;7.678;2023-03-23T14:24:10;98980.19;;;11.79;100.00
37778;BME280;23615;51.506;7.678;2023-03-23T14:26:37;98980.53;;;11.56;100.00
37778;BME280;23615;51.506;7.678;2023-03-23T14:29:03;98987.25;;;11.63;100.00